sensor_id;sensor_type;location;lat;lon;timestamp;temperature;humidity
19152;DHT22;9708;53.114;9.388;2023-04-28T00:00:30;5.30;99.90
19152;DHT22;9708;53.114;9.388;2023-04-28T00:02:57;5.30;99.90
19152;DHT22;9708;53.114;9.388;2023-04-28T00:05:24;5.30;99.90
19152;DHT22;9708;53.114;9.388;2023-04-28T00:07:51;5.20;99.90
19152;DHT22;9708;53.114;9.388;2023-04-28T00:10:17;5.10;99.90
19152;DHT22;9708;53.114;9.388;2023-04-28T00:12:46;5.00;99.90
19152;DHT22;9708;53.114;9.388;2023-04-28T00:15:12;5.10;99.90
19152;DHT22;9708;53.114;9.388;2023-04-28T00:17:39;5.10;99.90
19152;DHT22;9708;53.114;9.388;2023-04-28T00:20:07;5.00;99.90
19152;DHT22;9708;53.114;9.388;2023-04-28T00:22:34;4.90;99.90
19152;DHT22;9708;53.114;9.388;2023-04-28T00:25:01;4.80;99.90
19152;DHT22;9708;53.114;9.388;2023-04-28T00:27:29;4.70;99.90
19152;DHT22;9708;53.114;9.388;2023-04-28T00:29:57;4.70;99.90
19152;DHT22;9708;53.114;9.388;2023-04-28T00:32:23;4.60;99.90
19152;DHT22;9708;53.114;9.388;2023-04-28T00:34:50;4.60;99.90
19152;DHT22;9708;53.114;9.388;2023-04-28T00:37:17;4.60;99.90
19152;DHT22;9708;53.114;9.388;2023-04-28T00:39:44;4.60;99.90
19152;DHT22;9708;53.114;9.388;2023-04-28T00:42:11;4.50;99.90
19152;DHT22;9708;53.114;9.388;2023-04-28T00:44:38;4.50;99.90
19152;DHT22;9708;53.114;9.388;2023-04-28T00:47:07;4.50;99.90
19152;DHT22;9708;53.114;9.388;2023-04-28T00:49:35;4.60;99.90
19152;DHT22;9708;53.114;9.388;2023-04-28T00:52:04;4.60;99.90
19152;DHT22;9708;53.114;9.388;2023-04-28T00:54:32;4.60;99.90
19152;DHT22;9708;53.114;9.388;2023-04-28T00:56:58;4.60;99.90
19152;DHT22;9708;53.114;9.388;2023-04-28T00:59:27;4.50;99.90
19152;DHT22;9708;53.114;9.388;2023-04-28T01:01:54;4.40;99.90
19152;DHT22;9708;53.114;9.388;2023-04-28T01:04:22;4.30;99.90
19152;DHT22;9708;53.114;9.388;2023-04-28T01:06:51;4.40;99.90
19152;DHT22;9708;53.114;9.388;2023-04-28T01:09:19;4.40;99.90
19152;DHT22;9708;53.114;9.388;2023-04-28T01:11:46;4.40;99.90
19152;DHT22;9708;53.114;9.388;2023-04-28T01:14:12;4.40;99.90
19152;DHT22;9708;53.114;9.388;2023-04-28T01:16:40;4.30;99.90
19152;DHT22;9708;53.114;9.388;2023-04-28T01:19:07;4.40;99.90
19152;DHT22;9708;53.114;9.388;2023-04-28T01:21:39;4.40;99.90
19152;DHT22;9708;53.114;9.388;2023-04-28T01:24:07;4.40;99.90
19152;DHT22;9708;53.114;9.388;2023-04-28T01:26:34;4.40;99.90
19152;DHT22;9708;53.114;9.388;2023-04-28T01:29:01;4.40;99.90
19152;DHT22;9708;53.114;9.388;2023-04-28T01:31:28;4.40;99.90
19152;DHT22;9708;53.114;9.388;2023-04-28T01:33:56;4.40;99.90
19152;DHT22;9708;53.114;9.388;2023-04-28T01:36:22;4.30;99.90
19152;DHT22;9708;53.114;9.388;2023-04-28T01:38:49;4.30;99.90
19152;DHT22;9708;53.114;9.388;2023-04-28T01:41:17;4.20;99.90
19152;DHT22;9708;53.114;9.388;2023-04-28T01:43:44;4.20;99.90
19152;DHT22;9708;53.114;9.388;2023-04-28T01:46:11;4.30;99.90
19152;DHT22;9708;53.114;9.388;2023-04-28T01:48:38;4.30;99.90
19152;DHT22;9708;53.114;9.388;2023-04-28T01:51:04;4.30;99.90
19152;DHT22;9708;53.114;9.388;2023-04-28T01:53:31;4.30;99.90
19152;DHT22;9708;53.114;9.388;2023-04-28T01:55:58;4.30;99.90
19152;DHT22;9708;53.114;9.388;2023-04-28T01:58:26;4.30;99.90
19152;DHT22;9708;53.114;9.388;2023-04-28T02:00:53;4.20;99.90
19152;DHT22;9708;53.114;9.388;2023-04-28T02:03:20;4.20;99.90
19152;DHT22;9708;53.114;9.388;2023-04-28T02:05:47;4.10;99.90
19152;DHT22;9708;53.114;9.388;2023-04-28T02:08:14;4.00;99.90
19152;DHT22;9708;53.114;9.388;2023-04-28T02:10:41;3.90;99.90
19152;DHT22;9708;53.114;9.388;2023-04-28T02:13:08;3.80;99.90
19152;DHT22;9708;53.114;9.388;2023-04-28T02:15:40;3.80;99.90
19152;DHT22;9708;53.114;9.388;2023-04-28T02:18:07;3.80;99.90
19152;DHT22;9708;53.114;9.388;2023-04-28T02:20:33;3.80;99.90
19152;DHT22;9708;53.114;9.388;2023-04-28T02:23:00;3.80;99.90
19152;DHT22;9708;53.114;9.388;2023-04-28T02:25:27;3.80;99.90
19152;DHT22;9708;53.114;9.388;2023-04-28T02:27:54;3.80;99.90
19152;DHT22;9708;53.114;9.388;2023-04-28T02:30:21;3.90;99.90
19152;DHT22;9708;53.114;9.388;2023-04-28T02:32:50;4.00;99.90
19152;DHT22;9708;53.114;9.388;2023-04-28T02:35:16;4.00;99.90
19152;DHT22;9708;53.114;9.388;2023-04-28T02:37:43;4.00;99.90
19152;DHT22;9708;53.114;9.388;2023-04-28T02:40:11;4.10;99.90
19152;DHT22;9708;53.114;9.388;2023-04-28T02:42:38;4.10;99.90
19152;DHT22;9708;53.114;9.388;2023-04-28T02:45:06;4.10;99.90
19152;DHT22;9708;53.114;9.388;2023-04-28T02:47:32;4.10;99.90
19152;DHT22;9708;53.114;9.388;2023-04-28T02:50:01;4.10;99.90
19152;DHT22;9708;53.114;9.388;2023-04-28T02:52:28;4.10;99.90
19152;DHT22;9708;53.114;9.388;2023-04-28T02:54:55;4.00;99.90
19152;DHT22;9708;53.114;9.388;2023-04-28T02:57:22;4.10;99.90
19152;DHT22;9708;53.114;9.388;2023-04-28T02:59:49;4.00;99.90
19152;DHT22;9708;53.114;9.388;2023-04-28T03:02:15;3.90;99.90
19152;DHT22;9708;53.114;9.388;2023-04-28T03:04:42;3.80;99.90
19152;DHT22;9708;53.114;9.388;2023-04-28T03:07:10;3.90;99.90
19152;DHT22;9708;53.114;9.388;2023-04-28T03:09:37;3.80;99.90
19152;DHT22;9708;53.114;9.388;2023-04-28T03:12:04;3.80;99.90
19152;DHT22;9708;53.114;9.388;2023-04-28T03:14:31;3.80;99.90
19152;DHT22;9708;53.114;9.388;2023-04-28T03:16:58;3.80;99.90
19152;DHT22;9708;53.114;9.388;2023-04-28T03:19:24;3.90;99.90
19152;DHT22;9708;53.114;9.388;2023-04-28T03:21:52;3.80;99.90
19152;DHT22;9708;53.114;9.388;2023-04-28T03:24:20;3.80;99.90
19152;DHT22;9708;53.114;9.388;2023-04-28T03:26:46;3.80;99.90
19152;DHT22;9708;53.114;9.388;2023-04-28T03:29:13;3.80;99.90
19152;DHT22;9708;53.114;9.388;2023-04-28T03:31:40;3.80;99.90
19152;DHT22;9708;53.114;9.388;2023-04-28T03:34:07;3.80;99.90
19152;DHT22;9708;53.114;9.388;2023-04-28T03:36:33;3.80;99.90
19152;DHT22;9708;53.114;9.388;2023-04-28T03:39:00;3.90;99.90
19152;DHT22;9708;53.114;9.388;2023-04-28T03:41:28;3.90;99.90
19152;DHT22;9708;53.114;9.388;2023-04-28T03:43:55;3.90;99.90
19152;DHT22;9708;53.114;9.388;2023-04-28T03:46:22;4.00;99.90
19152;DHT22;9708;53.114;9.388;2023-04-28T03:48:49;4.00;99.90
19152;DHT22;9708;53.114;9.388;2023-04-28T03:51:16;4.10;99.90
19152;DHT22;9708;53.114;9.388;2023-04-28T03:53:43;4.10;99.90
19152;DHT22;9708;53.114;9.388;2023-04-28T03:56:10;4.10;99.90
19152;DHT22;9708;53.114;9.388;2023-04-28T03:58:38;4.20;99.90
19152;DHT22;9708;53.114;9.388;2023-04-28T04:01:05;4.40;99.90
19152;DHT22;9708;53.114;9.388;2023-04-28T04:03:32;4.40;99.90
19152;DHT22;9708;53.114;9.388;2023-04-28T04:05:59;4.50;99.90
19152;DHT22;9708;53.114;9.388;2023-04-28T04:08:26;4.50;99.90
19152;DHT22;9708;53.114;9.388;2023-04-28T04:10:53;4.50;99.90
19152;DHT22;9708;53.114;9.388;2023-04-28T04:13:20;4.50;99.90
19152;DHT22;9708;53.114;9.388;2023-04-28T04:15:48;4.70;99.90
19152;DHT22;9708;53.114;9.388;2023-04-28T04:18:17;4.70;99.90
19152;DHT22;9708;53.114;9.388;2023-04-28T04:20:44;4.70;99.90
19152;DHT22;9708;53.114;9.388;2023-04-28T04:23:11;4.90;99.90
19152;DHT22;9708;53.114;9.388;2023-04-28T04:25:37;4.90;99.90
19152;DHT22;9708;53.114;9.388;2023-04-28T04:28:04;5.00;99.90
19152;DHT22;9708;53.114;9.388;2023-04-28T04:30:31;5.00;99.90
19152;DHT22;9708;53.114;9.388;2023-04-28T04:32:59;5.00;99.90
19152;DHT22;9708;53.114;9.388;2023-04-28T04:35:26;5.00;99.90
19152;DHT22;9708;53.114;9.388;2023-04-28T04:37:53;5.00;99.90
19152;DHT22;9708;53.114;9.388;2023-04-28T04:40:19;5.00;99.90
19152;DHT22;9708;53.114;9.388;2023-04-28T04:42:46;5.20;99.90
19152;DHT22;9708;53.114;9.388;2023-04-28T04:45:13;5.30;99.90
19152;DHT22;9708;53.114;9.388;2023-04-28T04:47:40;5.40;99.90
19152;DHT22;9708;53.114;9.388;2023-04-28T04:50:10;5.50;99.90
19152;DHT22;9708;53.114;9.388;2023-04-28T04:52:37;5.60;99.90
19152;DHT22;9708;53.114;9.388;2023-04-28T04:55:04;5.90;99.90
19152;DHT22;9708;53.114;9.388;2023-04-28T04:57:31;6.20;99.90
19152;DHT22;9708;53.114;9.388;2023-04-28T04:59:58;6.60;99.90
19152;DHT22;9708;53.114;9.388;2023-04-28T05:02:25;7.20;99.90
19152;DHT22;9708;53.114;9.388;2023-04-28T05:04:51;7.60;99.90
19152;DHT22;9708;53.114;9.388;2023-04-28T05:07:19;8.00;99.90
19152;DHT22;9708;53.114;9.388;2023-04-28T05:09:46;8.20;99.90
19152;DHT22;9708;53.114;9.388;2023-04-28T05:12:13;8.00;99.90
19152;DHT22;9708;53.114;9.388;2023-04-28T05:14:40;7.70;99.90
19152;DHT22;9708;53.114;9.388;2023-04-28T05:17:06;7.40;99.90
19152;DHT22;9708;53.114;9.388;2023-04-28T05:19:33;7.20;99.90
19152;DHT22;9708;53.114;9.388;2023-04-28T05:22:00;7.20;99.90
19152;DHT22;9708;53.114;9.388;2023-04-28T05:24:29;7.30;99.90
19152;DHT22;9708;53.114;9.388;2023-04-28T05:26:57;7.80;99.90
19152;DHT22;9708;53.114;9.388;2023-04-28T05:29:24;8.00;99.90
19152;DHT22;9708;53.114;9.388;2023-04-28T05:31:51;8.40;99.90
19152;DHT22;9708;53.114;9.388;2023-04-28T05:34:18;8.70;99.90
19152;DHT22;9708;53.114;9.388;2023-04-28T05:36:44;8.50;99.90
19152;DHT22;9708;53.114;9.388;2023-04-28T05:39:11;8.80;99.90
19152;DHT22;9708;53.114;9.388;2023-04-28T05:41:39;8.90;99.90
19152;DHT22;9708;53.114;9.388;2023-04-28T05:44:06;9.10;99.90
19152;DHT22;9708;53.114;9.388;2023-04-28T05:46:33;8.90;99.90
19152;DHT22;9708;53.114;9.388;2023-04-28T05:49:00;9.30;99.90
19152;DHT22;9708;53.114;9.388;2023-04-28T05:51:27;9.40;99.90
19152;DHT22;9708;53.114;9.388;2023-04-28T05:53:54;10.10;99.90
19152;DHT22;9708;53.114;9.388;2023-04-28T05:56:21;10.40;99.90
19152;DHT22;9708;53.114;9.388;2023-04-28T05:58:49;11.50;99.90
19152;DHT22;9708;53.114;9.388;2023-04-28T06:01:16;11.60;99.90
19152;DHT22;9708;53.114;9.388;2023-04-28T06:03:43;11.60;99.90
19152;DHT22;9708;53.114;9.388;2023-04-28T06:06:11;11.70;99.90
19152;DHT22;9708;53.114;9.388;2023-04-28T06:08:38;11.00;99.90
19152;DHT22;9708;53.114;9.388;2023-04-28T06:11:05;11.00;99.90
19152;DHT22;9708;53.114;9.388;2023-04-28T06:13:32;10.60;99.90
19152;DHT22;9708;53.114;9.388;2023-04-28T06:16:00;10.40;99.90
19152;DHT22;9708;53.114;9.388;2023-04-28T06:18:28;10.90;99.90
19152;DHT22;9708;53.114;9.388;2023-04-28T06:20:56;11.20;99.90
19152;DHT22;9708;53.114;9.388;2023-04-28T06:23:23;11.90;99.90
19152;DHT22;9708;53.114;9.388;2023-04-28T06:25:50;11.70;99.90
19152;DHT22;9708;53.114;9.388;2023-04-28T06:28:17;11.20;99.90
19152;DHT22;9708;53.114;9.388;2023-04-28T06:30:43;11.10;99.90
19152;DHT22;9708;53.114;9.388;2023-04-28T06:33:12;10.90;99.90
19152;DHT22;9708;53.114;9.388;2023-04-28T06:35:38;10.90;99.90
19152;DHT22;9708;53.114;9.388;2023-04-28T06:38:05;10.80;99.90
19152;DHT22;9708;53.114;9.388;2023-04-28T06:40:32;11.20;99.90
19152;DHT22;9708;53.114;9.388;2023-04-28T06:42:59;11.30;99.90
19152;DHT22;9708;53.114;9.388;2023-04-28T06:45:26;11.80;99.90
19152;DHT22;9708;53.114;9.388;2023-04-28T06:47:53;11.50;99.90
19152;DHT22;9708;53.114;9.388;2023-04-28T06:50:22;11.90;99.90
19152;DHT22;9708;53.114;9.388;2023-04-28T06:52:49;11.50;99.90
19152;DHT22;9708;53.114;9.388;2023-04-28T06:55:16;11.70;99.90
19152;DHT22;9708;53.114;9.388;2023-04-28T06:57:43;11.70;99.90
19152;DHT22;9708;53.114;9.388;2023-04-28T07:00:10;11.50;99.90
19152;DHT22;9708;53.114;9.388;2023-04-28T07:02:37;11.30;99.90
19152;DHT22;9708;53.114;9.388;2023-04-28T07:05:05;11.20;99.90
19152;DHT22;9708;53.114;9.388;2023-04-28T07:07:33;11.50;99.90
19152;DHT22;9708;53.114;9.388;2023-04-28T07:10:00;11.60;99.90
19152;DHT22;9708;53.114;9.388;2023-04-28T07:12:27;11.80;99.90
19152;DHT22;9708;53.114;9.388;2023-04-28T07:14:54;12.00;99.90
19152;DHT22;9708;53.114;9.388;2023-04-28T07:17:21;11.90;99.90
19152;DHT22;9708;53.114;9.388;2023-04-28T07:19:47;11.70;99.90
19152;DHT22;9708;53.114;9.388;2023-04-28T07:22:15;11.80;99.90
19152;DHT22;9708;53.114;9.388;2023-04-28T07:24:43;11.50;99.90
19152;DHT22;9708;53.114;9.388;2023-04-28T07:27:10;11.70;99.90
19152;DHT22;9708;53.114;9.388;2023-04-28T07:29:37;11.60;99.90
19152;DHT22;9708;53.114;9.388;2023-04-28T07:32:04;11.70;99.90
19152;DHT22;9708;53.114;9.388;2023-04-28T07:34:33;12.00;99.90
19152;DHT22;9708;53.114;9.388;2023-04-28T07:37:00;11.50;99.90
19152;DHT22;9708;53.114;9.388;2023-04-28T07:39:27;11.70;99.90
19152;DHT22;9708;53.114;9.388;2023-04-28T07:41:55;11.50;99.90
19152;DHT22;9708;53.114;9.388;2023-04-28T07:44:23;11.50;99.90
19152;DHT22;9708;53.114;9.388;2023-04-28T07:46:50;11.80;99.90
19152;DHT22;9708;53.114;9.388;2023-04-28T07:49:17;11.70;99.90
19152;DHT22;9708;53.114;9.388;2023-04-28T07:51:43;11.70;99.90
19152;DHT22;9708;53.114;9.388;2023-04-28T07:54:10;11.50;99.90
19152;DHT22;9708;53.114;9.388;2023-04-28T07:56:37;11.40;99.90
19152;DHT22;9708;53.114;9.388;2023-04-28T07:59:05;11.80;99.90
19152;DHT22;9708;53.114;9.388;2023-04-28T08:01:32;12.30;99.90
19152;DHT22;9708;53.114;9.388;2023-04-28T08:03:59;12.50;99.90
19152;DHT22;9708;53.114;9.388;2023-04-28T08:06:26;12.80;99.90
19152;DHT22;9708;53.114;9.388;2023-04-28T08:08:53;12.80;99.90
19152;DHT22;9708;53.114;9.388;2023-04-28T08:11:20;12.50;99.90
19152;DHT22;9708;53.114;9.388;2023-04-28T08:13:47;12.50;99.90
19152;DHT22;9708;53.114;9.388;2023-04-28T08:16:15;12.80;99.90
19152;DHT22;9708;53.114;9.388;2023-04-28T08:18:42;13.00;99.90
19152;DHT22;9708;53.114;9.388;2023-04-28T08:21:10;13.00;99.90
19152;DHT22;9708;53.114;9.388;2023-04-28T08:23:37;13.10;99.90
19152;DHT22;9708;53.114;9.388;2023-04-28T08:26:04;13.30;99.90
19152;DHT22;9708;53.114;9.388;2023-04-28T08:28:30;13.10;99.90
19152;DHT22;9708;53.114;9.388;2023-04-28T08:30:58;13.30;99.90
19152;DHT22;9708;53.114;9.388;2023-04-28T08:33:26;13.40;99.90
19152;DHT22;9708;53.114;9.388;2023-04-28T08:35:54;13.10;99.90
19152;DHT22;9708;53.114;9.388;2023-04-28T08:38:21;13.00;99.90
19152;DHT22;9708;53.114;9.388;2023-04-28T08:40:49;12.90;99.90
19152;DHT22;9708;53.114;9.388;2023-04-28T08:43:16;13.10;99.90
19152;DHT22;9708;53.114;9.388;2023-04-28T08:45:45;13.00;99.90
19152;DHT22;9708;53.114;9.388;2023-04-28T08:48:17;13.10;99.90
19152;DHT22;9708;53.114;9.388;2023-04-28T08:50:49;13.20;99.90
19152;DHT22;9708;53.114;9.388;2023-04-28T08:53:21;13.40;99.90
19152;DHT22;9708;53.114;9.388;2023-04-28T08:55:51;13.60;99.90
19152;DHT22;9708;53.114;9.388;2023-04-28T08:58:20;13.50;99.90
19152;DHT22;9708;53.114;9.388;2023-04-28T09:00:47;13.40;99.90
19152;DHT22;9708;53.114;9.388;2023-04-28T09:03:14;13.30;99.90
19152;DHT22;9708;53.114;9.388;2023-04-28T09:05:41;13.50;99.90
19152;DHT22;9708;53.114;9.388;2023-04-28T09:08:09;13.50;99.90
19152;DHT22;9708;53.114;9.388;2023-04-28T09:10:37;13.30;99.90
19152;DHT22;9708;53.114;9.388;2023-04-28T09:13:04;13.50;99.90
19152;DHT22;9708;53.114;9.388;2023-04-28T09:15:32;13.70;99.90
19152;DHT22;9708;53.114;9.388;2023-04-28T09:17:59;13.60;99.90
19152;DHT22;9708;53.114;9.388;2023-04-28T09:20:28;13.70;99.90
19152;DHT22;9708;53.114;9.388;2023-04-28T09:22:56;13.90;99.90
19152;DHT22;9708;53.114;9.388;2023-04-28T09:25:38;13.80;99.90
19152;DHT22;9708;53.114;9.388;2023-04-28T09:28:18;13.80;99.90
19152;DHT22;9708;53.114;9.388;2023-04-28T09:30:46;13.70;99.90
19152;DHT22;9708;53.114;9.388;2023-04-28T09:33:13;13.70;99.90
19152;DHT22;9708;53.114;9.388;2023-04-28T09:35:41;13.90;99.90
19152;DHT22;9708;53.114;9.388;2023-04-28T09:38:07;13.70;99.90
19152;DHT22;9708;53.114;9.388;2023-04-28T09:40:48;13.60;99.90
19152;DHT22;9708;53.114;9.388;2023-04-28T09:43:26;13.80;99.90
19152;DHT22;9708;53.114;9.388;2023-04-28T09:45:53;13.90;99.90
19152;DHT22;9708;53.114;9.388;2023-04-28T09:48:31;13.70;99.90
19152;DHT22;9708;53.114;9.388;2023-04-28T09:50:58;13.70;99.90
19152;DHT22;9708;53.114;9.388;2023-04-28T09:53:26;13.90;99.90
19152;DHT22;9708;53.114;9.388;2023-04-28T09:55:56;13.70;99.90
19152;DHT22;9708;53.114;9.388;2023-04-28T09:58:24;13.80;99.90
19152;DHT22;9708;53.114;9.388;2023-04-28T10:00:52;13.80;99.90
19152;DHT22;9708;53.114;9.388;2023-04-28T10:03:21;13.70;99.90
19152;DHT22;9708;53.114;9.388;2023-04-28T10:05:49;13.90;99.90
19152;DHT22;9708;53.114;9.388;2023-04-28T10:08:18;13.90;99.90
19152;DHT22;9708;53.114;9.388;2023-04-28T10:10:46;13.90;99.90
19152;DHT22;9708;53.114;9.388;2023-04-28T10:13:16;14.00;99.90
19152;DHT22;9708;53.114;9.388;2023-04-28T10:15:43;14.10;99.90
19152;DHT22;9708;53.114;9.388;2023-04-28T10:18:11;14.40;99.90
19152;DHT22;9708;53.114;9.388;2023-04-28T10:20:41;14.60;99.90
19152;DHT22;9708;53.114;9.388;2023-04-28T10:23:30;14.80;99.90
19152;DHT22;9708;53.114;9.388;2023-04-28T10:26:02;15.00;99.90
19152;DHT22;9708;53.114;9.388;2023-04-28T10:28:30;14.60;99.90
19152;DHT22;9708;53.114;9.388;2023-04-28T10:31:10;14.60;99.90
19152;DHT22;9708;53.114;9.388;2023-04-28T10:33:38;14.50;99.90
19152;DHT22;9708;53.114;9.388;2023-04-28T10:36:06;14.90;99.90
19152;DHT22;9708;53.114;9.388;2023-04-28T10:38:33;14.50;99.90
19152;DHT22;9708;53.114;9.388;2023-04-28T10:41:00;14.60;99.90
19152;DHT22;9708;53.114;9.388;2023-04-28T10:43:38;14.60;99.90
19152;DHT22;9708;53.114;9.388;2023-04-28T10:46:09;14.50;99.90
19152;DHT22;9708;53.114;9.388;2023-04-28T10:48:56;14.30;99.90
19152;DHT22;9708;53.114;9.388;2023-04-28T10:51:27;14.40;99.90
19152;DHT22;9708;53.114;9.388;2023-04-28T10:54:07;14.10;99.90
19152;DHT22;9708;53.114;9.388;2023-04-28T10:56:34;14.20;99.90
19152;DHT22;9708;53.114;9.388;2023-04-28T10:59:25;14.40;99.90
19152;DHT22;9708;53.114;9.388;2023-04-28T11:01:53;14.40;99.90
19152;DHT22;9708;53.114;9.388;2023-04-28T11:04:19;14.10;99.90
19152;DHT22;9708;53.114;9.388;2023-04-28T11:07:10;14.10;99.90
19152;DHT22;9708;53.114;9.388;2023-04-28T11:09:47;14.30;99.90
19152;DHT22;9708;53.114;9.388;2023-04-28T11:12:14;14.30;99.90
19152;DHT22;9708;53.114;9.388;2023-04-28T11:14:43;14.10;99.90
19152;DHT22;9708;53.114;9.388;2023-04-28T11:17:10;14.30;99.90
19152;DHT22;9708;53.114;9.388;2023-04-28T11:19:42;14.30;99.90
19152;DHT22;9708;53.114;9.388;2023-04-28T11:22:13;14.50;99.90
19152;DHT22;9708;53.114;9.388;2023-04-28T11:24:41;14.50;99.90
19152;DHT22;9708;53.114;9.388;2023-04-28T11:27:07;14.40;99.90
19152;DHT22;9708;53.114;9.388;2023-04-28T11:29:36;14.40;99.90
19152;DHT22;9708;53.114;9.388;2023-04-28T11:32:05;14.40;99.90
19152;DHT22;9708;53.114;9.388;2023-04-28T11:34:33;14.20;99.90
19152;DHT22;9708;53.114;9.388;2023-04-28T11:37:00;14.20;99.90
19152;DHT22;9708;53.114;9.388;2023-04-28T11:39:28;13.90;99.90
19152;DHT22;9708;53.114;9.388;2023-04-28T11:41:56;13.90;99.90
19152;DHT22;9708;53.114;9.388;2023-04-28T11:44:24;13.80;99.90
19152;DHT22;9708;53.114;9.388;2023-04-28T11:46:52;13.80;99.90
19152;DHT22;9708;53.114;9.388;2023-04-28T11:49:22;13.90;99.90
19152;DHT22;9708;53.114;9.388;2023-04-28T11:51:50;14.00;99.90
19152;DHT22;9708;53.114;9.388;2023-04-28T11:54:21;14.10;99.90
19152;DHT22;9708;53.114;9.388;2023-04-28T11:56:48;13.90;99.90
19152;DHT22;9708;53.114;9.388;2023-04-28T11:59:15;13.70;99.90
19152;DHT22;9708;53.114;9.388;2023-04-28T12:01:47;13.70;99.90
19152;DHT22;9708;53.114;9.388;2023-04-28T12:04:27;13.80;99.90
19152;DHT22;9708;53.114;9.388;2023-04-28T12:07:01;13.90;99.90
19152;DHT22;9708;53.114;9.388;2023-04-28T12:09:29;14.20;99.90
19152;DHT22;9708;53.114;9.388;2023-04-28T12:11:57;14.00;99.90
19152;DHT22;9708;53.114;9.388;2023-04-28T12:14:24;14.10;99.90
19152;DHT22;9708;53.114;9.388;2023-04-28T12:16:51;14.20;99.90
19152;DHT22;9708;53.114;9.388;2023-04-28T12:19:18;14.00;99.90
19152;DHT22;9708;53.114;9.388;2023-04-28T12:22:02;14.00;99.90
19152;DHT22;9708;53.114;9.388;2023-04-28T12:24:30;14.20;99.90
19152;DHT22;9708;53.114;9.388;2023-04-28T12:27:17;14.10;99.90
19152;DHT22;9708;53.114;9.388;2023-04-28T12:29:46;14.30;99.90
19152;DHT22;9708;53.114;9.388;2023-04-28T12:32:13;14.70;99.90
19152;DHT22;9708;53.114;9.388;2023-04-28T12:34:41;14.80;99.90
19152;DHT22;9708;53.114;9.388;2023-04-28T12:37:09;14.70;99.90
19152;DHT22;9708;53.114;9.388;2023-04-28T12:39:39;15.00;99.90
19152;DHT22;9708;53.114;9.388;2023-04-28T12:42:06;15.10;99.90
19152;DHT22;9708;53.114;9.388;2023-04-28T12:44:34;15.50;99.90
19152;DHT22;9708;53.114;9.388;2023-04-28T12:47:03;15.10;99.90
19152;DHT22;9708;53.114;9.388;2023-04-28T12:49:30;15.20;99.90
19152;DHT22;9708;53.114;9.388;2023-04-28T12:51:57;15.30;99.90
19152;DHT22;9708;53.114;9.388;2023-04-28T12:54:25;15.10;99.90
19152;DHT22;9708;53.114;9.388;2023-04-28T12:56:52;15.20;99.90
19152;DHT22;9708;53.114;9.388;2023-04-28T12:59:20;15.10;99.90
19152;DHT22;9708;53.114;9.388;2023-04-28T13:01:47;15.20;99.90
19152;DHT22;9708;53.114;9.388;2023-04-28T13:04:14;15.10;99.90
19152;DHT22;9708;53.114;9.388;2023-04-28T13:06:41;15.30;99.90
19152;DHT22;9708;53.114;9.388;2023-04-28T13:09:09;15.10;99.90
19152;DHT22;9708;53.114;9.388;2023-04-28T13:11:37;15.30;99.90
19152;DHT22;9708;53.114;9.388;2023-04-28T13:14:04;15.40;99.90
19152;DHT22;9708;53.114;9.388;2023-04-28T13:16:31;15.40;99.90
19152;DHT22;9708;53.114;9.388;2023-04-28T13:18:58;15.50;99.90
19152;DHT22;9708;53.114;9.388;2023-04-28T13:21:25;15.50;99.90
19152;DHT22;9708;53.114;9.388;2023-04-28T13:23:53;15.70;99.90
19152;DHT22;9708;53.114;9.388;2023-04-28T13:26:20;15.80;99.90
19152;DHT22;9708;53.114;9.388;2023-04-28T13:28:50;15.70;99.90
19152;DHT22;9708;53.114;9.388;2023-04-28T13:31:17;15.70;99.90
19152;DHT22;9708;53.114;9.388;2023-04-28T13:33:44;15.60;99.90
19152;DHT22;9708;53.114;9.388;2023-04-28T13:36:11;15.50;99.90
19152;DHT22;9708;53.114;9.388;2023-04-28T13:38:38;15.60;99.90
19152;DHT22;9708;53.114;9.388;2023-04-28T13:41:04;15.60;99.90
19152;DHT22;9708;53.114;9.388;2023-04-28T13:43:32;15.80;99.90
19152;DHT22;9708;53.114;9.388;2023-04-28T13:46:00;15.80;99.90
19152;DHT22;9708;53.114;9.388;2023-04-28T13:48:31;15.80;99.90
19152;DHT22;9708;53.114;9.388;2023-04-28T13:50:59;15.70;99.90
19152;DHT22;9708;53.114;9.388;2023-04-28T13:53:25;15.60;99.90
19152;DHT22;9708;53.114;9.388;2023-04-28T13:55:52;15.80;99.90
19152;DHT22;9708;53.114;9.388;2023-04-28T13:58:22;15.80;99.90
19152;DHT22;9708;53.114;9.388;2023-04-28T14:00:48;15.70;99.90
19152;DHT22;9708;53.114;9.388;2023-04-28T14:03:17;15.70;99.90
19152;DHT22;9708;53.114;9.388;2023-04-28T14:05:44;16.00;99.90
19152;DHT22;9708;53.114;9.388;2023-04-28T14:08:10;16.10;99.90
19152;DHT22;9708;53.114;9.388;2023-04-28T14:10:37;16.40;99.90
19152;DHT22;9708;53.114;9.388;2023-04-28T14:13:04;16.40;99.90
19152;DHT22;9708;53.114;9.388;2023-04-28T14:15:31;16.40;99.90
19152;DHT22;9708;53.114;9.388;2023-04-28T14:17:58;16.10;99.90
19152;DHT22;9708;53.114;9.388;2023-04-28T14:20:26;15.80;99.90
19152;DHT22;9708;53.114;9.388;2023-04-28T14:22:53;15.60;99.90
19152;DHT22;9708;53.114;9.388;2023-04-28T14:25:20;15.80;99.90
19152;DHT22;9708;53.114;9.388;2023-04-28T14:27:47;16.00;99.90
19152;DHT22;9708;53.114;9.388;2023-04-28T14:30:14;16.10;99.90
19152;DHT22;9708;53.114;9.388;2023-04-28T14:32:42;16.20;99.90
19152;DHT22;9708;53.114;9.388;2023-04-28T14:35:10;16.10;99.90
19152;DHT22;9708;53.114;9.388;2023-04-28T14:37:39;16.00;99.90
19152;DHT22;9708;53.114;9.388;2023-04-28T14:40:07;16.10;99.90
19152;DHT22;9708;53.114;9.388;2023-04-28T14:42:34;15.80;99.90
19152;DHT22;9708;53.114;9.388;2023-04-28T14:45:02;15.70;99.90
19152;DHT22;9708;53.114;9.388;2023-04-28T14:47:29;15.70;99.90
19152;DHT22;9708;53.114;9.388;2023-04-28T14:49:56;15.80;99.90
19152;DHT22;9708;53.114;9.388;2023-04-28T14:52:24;16.10;99.90
19152;DHT22;9708;53.114;9.388;2023-04-28T14:54:53;16.10;99.90
19152;DHT22;9708;53.114;9.388;2023-04-28T14:57:20;16.10;99.90
19152;DHT22;9708;53.114;9.388;2023-04-28T14:59:47;15.90;99.90
19152;DHT22;9708;53.114;9.388;2023-04-28T15:02:16;16.20;99.90
19152;DHT22;9708;53.114;9.388;2023-04-28T15:04:44;16.20;99.90
19152;DHT22;9708;53.114;9.388;2023-04-28T15:07:11;16.20;99.90
19152;DHT22;9708;53.114;9.388;2023-04-28T15:09:38;16.30;99.90
19152;DHT22;9708;53.114;9.388;2023-04-28T15:12:06;16.30;99.90
19152;DHT22;9708;53.114;9.388;2023-04-28T15:14:33;16.20;99.90
19152;DHT22;9708;53.114;9.388;2023-04-28T15:17:00;16.30;99.90
19152;DHT22;9708;53.114;9.388;2023-04-28T15:19:26;16.10;99.90
19152;DHT22;9708;53.114;9.388;2023-04-28T15:21:54;15.90;99.90
19152;DHT22;9708;53.114;9.388;2023-04-28T15:24:20;16.10;99.90
19152;DHT22;9708;53.114;9.388;2023-04-28T15:26:47;15.80;99.90
19152;DHT22;9708;53.114;9.388;2023-04-28T15:29:15;16.10;99.90
19152;DHT22;9708;53.114;9.388;2023-04-28T15:31:43;16.00;99.90
19152;DHT22;9708;53.114;9.388;2023-04-28T15:34:10;15.90;99.90
19152;DHT22;9708;53.114;9.388;2023-04-28T15:36:37;16.00;99.90
19152;DHT22;9708;53.114;9.388;2023-04-28T15:39:05;15.90;99.90
19152;DHT22;9708;53.114;9.388;2023-04-28T15:41:32;15.80;99.90
19152;DHT22;9708;53.114;9.388;2023-04-28T15:43:58;15.90;99.90
19152;DHT22;9708;53.114;9.388;2023-04-28T15:46:27;15.60;99.90
19152;DHT22;9708;53.114;9.388;2023-04-28T15:48:54;15.70;99.90
19152;DHT22;9708;53.114;9.388;2023-04-28T15:51:22;15.80;99.90
19152;DHT22;9708;53.114;9.388;2023-04-28T15:53:49;15.70;99.90
19152;DHT22;9708;53.114;9.388;2023-04-28T15:56:16;15.80;99.90